Jackson, MI

12:45 PM EST on March 01, 2017 (GMT -0500)
Weather Davis | | Change Station

Elev 1008 ft 42.24 °N, 84.25 °W | Updated 6 seconds ago

Rain
Rain
49.8 °F
Feels Like 46 °F
N
10.7
Wind Variable Wind from West
Gusts 22.1 mph

Today
High -- | Low -- °F
--% Chance of Precip.
Yesterday
High -- | Low -- °F
Precip. -- in
Pressure 29.36 in
Visibility 10.0 miles
Clouds Few 1800 ft
Mostly Cloudy 2500 ft
Overcast 5000 ft
Windchill 46 °F
Dew Point 47 °F
Humidity 90%
Rainfall 0.46 in
Snow Depth Not available.
7:11 AM 6:27 PM
Waxing Crescent, 12% visible
METAR KJXN 011656Z 24012KT 10SM FEW018 BKN025 OVC050 12/09 A2936 RMK AO2 PK WND 24027/1625 SLP941 T01220094
Pressure 29.36 in
Visibility 10.0 miles
Clouds Few 1800 ft
Mostly Cloudy 2500 ft
Overcast 5000 ft
Windchill 46 °F
Dew Point 47 °F
Humidity 90%
Rainfall 0.46 in
Snow Depth Not available.
7:11 AM 6:27 PM
Waxing Crescent, 12% visible
METAR KJXN 011656Z 24012KT 10SM FEW018 BKN025 OVC050 12/09 A2936 RMK AO2 PK WND 24027/1625 SLP941 T01220094

Get Your Daily Forecast Email!

Thanks for signing up!

Be on the lookout for a verification email in your inbox.

You'll start receiving the daily forecast at 8 AM.

×

10-Day Weather Forecast

Almanac

Astronomy

Mar. 01, 2017 Rise Set
Actual Time
Civil Twilight
Nautical Twilight
Astronomical Twilight
Moon
Length of Visible Light
Length of Day
Tomorrow will be .
, % of the Moon is Illuminated

Today's Extremes

State Highs State Lows

Community

WunderPhotos

Upload Photos

1,962,540 photos uploaded!

WunderBlog® & News

Nearby

Air Quality

  Air Quality AQ Index Pollutant
Not available.

Snow Depth

Station Depth Elevation

Earthquake Activity

City Distance Mag. Time & Date
Minimum magnitude displayed is 2.5.

Coastal Water Temperatures

Place Temperature

Stations

Nearby Weather Stations

Station Location Temp. Windchill Dew Point Humidity Wind Precip. Elev Updated Type
                   

Watches & Warnings

Flood Watch / Flood Statement
Issued: 12:38 PM EST Mar. 1, 2017 – National Weather Service

The flood advisory is cancelled for
the Grand River at Jackson.
* At 11 am Wednesday the stage was 11.8 feet.
* Bankfull stage is 13.0 feet.
* Flood stage is 14.0 feet.
* Forecast, the river will remain near 11.8 feet through tomorrow
morning.
* Impact, at 13.0 feet... river is bankfull. River begins to flow into
low lying areas.


Lat... Lon 4232 8447 4223 8445 4219 8435 4225 8431
      4227 8437 4237 8434